createdAt,value
2017-12-06T00:01:00.855Z,102469.89
2017-12-06T00:03:27.627Z,102467.69
2017-12-06T00:05:54.429Z,102458.97
2017-12-06T00:08:21.226Z,102459.77
2017-12-06T00:10:48.740Z,102458.48
2017-12-06T00:13:21.413Z,102453.70
2017-12-06T00:15:48.206Z,102462.83
2017-12-06T00:18:14.995Z,102458.48
2017-12-06T00:20:41.800Z,102458.08
2017-12-06T00:23:08.652Z,102458.08
2017-12-06T00:25:35.443Z,102453.20
2017-12-06T00:28:02.283Z,102454.55
2017-12-06T00:30:29.037Z,102452.37
2017-12-06T00:32:55.869Z,102446.25
2017-12-06T00:35:23.383Z,102450.65
2017-12-06T00:37:50.153Z,102446.69
2017-12-06T00:40:16.920Z,102444.94
2017-12-06T00:42:43.714Z,102443.17
2017-12-06T00:45:10.551Z,102439.69
2017-12-06T00:47:37.362Z,102445.83
2017-12-06T00:50:04.153Z,102441.89
2017-12-06T00:52:31.834Z,102440.13
2017-12-06T00:54:58.596Z,102442.76
2017-12-06T00:57:25.403Z,102438.80
2017-12-06T00:59:52.920Z,102435.70
2017-12-06T01:02:19.734Z,102438.81
2017-12-06T01:04:46.492Z,102436.61
2017-12-06T01:07:13.265Z,102428.30
2017-12-06T01:09:40.809Z,102435.78
2017-12-06T01:12:07.568Z,102430.05
2017-12-06T01:14:34.321Z,102428.32
2017-12-06T01:17:01.113Z,102438.39
2017-12-06T01:19:27.901Z,102441.45
2017-12-06T01:21:54.673Z,102437.94
2017-12-06T01:24:21.512Z,102435.30
2017-12-06T01:26:49.000Z,102437.06
2017-12-06T01:29:15.758Z,102437.94
2017-12-06T01:31:42.522Z,102445.81
2017-12-06T01:34:09.324Z,102442.77
2017-12-06T01:36:36.080Z,102448.91
2017-12-06T01:39:02.980Z,102447.57
2017-12-06T01:41:29.796Z,102456.34
2017-12-06T01:43:56.586Z,102448.91
2017-12-06T01:46:23.383Z,102441.91
2017-12-06T01:48:50.219Z,102442.77
2017-12-06T01:51:17.743Z,102440.59
2017-12-06T01:53:44.557Z,102433.17
2017-12-06T01:56:11.393Z,102437.52
2017-12-06T01:58:38.221Z,102440.56
2017-12-06T02:01:05.019Z,102437.11
2017-12-06T02:03:32.624Z,102435.77
2017-12-06T02:05:59.459Z,102432.27
2017-12-06T02:08:26.301Z,102438.83
2017-12-06T02:10:53.173Z,102442.78
2017-12-06T02:13:20.021Z,102442.76
2017-12-06T02:15:46.902Z,102437.96
2017-12-06T02:18:13.689Z,102436.63
2017-12-06T02:20:40.586Z,102439.73
2017-12-06T02:23:07.476Z,102432.75
2017-12-06T02:25:34.300Z,102426.16
2017-12-06T02:28:01.182Z,102424.38
2017-12-06T02:30:27.984Z,102419.60
2017-12-06T02:32:54.778Z,102424.39
2017-12-06T02:35:21.596Z,102427.91
2017-12-06T02:37:48.367Z,102420.45
2017-12-06T02:40:34.037Z,102411.73
2017-12-06T02:43:18.994Z,102412.63
2017-12-06T02:45:45.865Z,102418.73
2017-12-06T02:48:12.752Z,102413.89
2017-12-06T02:50:39.571Z,102406.01
2017-12-06T02:53:06.348Z,102400.75
2017-12-06T02:55:33.180Z,102393.31
2017-12-06T02:58:00.746Z,102396.36
2017-12-06T03:00:27.572Z,102396.81
2017-12-06T03:02:54.389Z,102404.70
2017-12-06T03:05:21.231Z,102396.80
2017-12-06T03:07:48.085Z,102401.62
2017-12-06T03:10:14.844Z,102404.72
2017-12-06T03:12:41.611Z,102411.70
2017-12-06T03:15:08.420Z,102402.92
2017-12-06T03:17:35.226Z,102401.19
2017-12-06T03:20:02.037Z,102407.80
2017-12-06T03:22:28.833Z,102405.12
2017-12-06T03:24:56.360Z,102405.56
2017-12-06T03:27:23.181Z,102398.58
2017-12-06T03:29:49.962Z,102391.98
2017-12-06T03:32:16.779Z,102393.75
2017-12-06T03:34:44.283Z,102388.52
2017-12-06T03:37:11.057Z,102386.31
2017-12-06T03:39:37.851Z,102385.89
2017-12-06T03:42:04.661Z,102384.55
2017-12-06T03:44:31.456Z,102380.17
2017-12-06T03:46:58.188Z,102371.88
2017-12-06T03:49:24.976Z,102369.64
2017-12-06T03:51:51.784Z,102363.06
2017-12-06T03:54:19.295Z,102360.89
2017-12-06T03:56:46.081Z,102368.78
2017-12-06T03:59:12.894Z,102369.66
2017-12-06T04:01:39.711Z,102374.03
2017-12-06T04:04:06.477Z,102370.50
2017-12-06T04:06:33.226Z,102365.30
2017-12-06T04:09:00.041Z,102360.91
2017-12-06T04:11:26.894Z,102355.19
2017-12-06T04:13:53.687Z,102354.33
2017-12-06T04:16:20.417Z,102354.75
2017-12-06T04:18:47.314Z,102354.33
2017-12-06T04:21:14.099Z,102354.75
2017-12-06T04:23:40.869Z,102355.63
2017-12-06T04:26:08.354Z,102352.57
2017-12-06T04:28:35.890Z,102348.19
2017-12-06T04:31:02.677Z,102339.00
2017-12-06T04:33:29.463Z,102345.97
2017-12-06T04:35:56.222Z,102343.36
2017-12-06T04:38:23.017Z,102351.65
2017-12-06T04:40:49.853Z,102356.93
2017-12-06T04:43:16.633Z,102354.27
2017-12-06T04:45:43.463Z,102348.61
2017-12-06T04:48:10.234Z,102355.18
2017-12-06T04:50:37.061Z,102342.48
2017-12-06T04:53:04.592Z,102330.64
2017-12-06T04:55:31.394Z,102331.48
2017-12-06T04:57:58.925Z,102329.76
2017-12-06T05:00:25.717Z,102329.79
2017-12-06T05:02:52.527Z,102333.69
2017-12-06T05:05:19.309Z,102334.13
2017-12-06T05:07:46.107Z,102322.28
2017-12-06T05:10:12.882Z,102317.92
2017-12-06T05:12:40.399Z,102322.28
2017-12-06T05:15:07.208Z,102321.38
2017-12-06T05:17:35.650Z,102320.97
2017-12-06T05:20:02.477Z,102316.15
2017-12-06T05:22:30.007Z,102315.71
2017-12-06T05:24:56.819Z,102314.39
2017-12-06T05:27:23.636Z,102312.19
2017-12-06T05:29:50.437Z,102305.64
2017-12-06T05:32:17.994Z,102305.18
2017-12-06T05:34:44.792Z,102294.63
2017-12-06T05:37:11.560Z,102292.00
2017-12-06T05:39:38.441Z,102297.70
2017-12-06T05:42:05.208Z,102295.05
2017-12-06T05:44:31.979Z,102294.20
2017-12-06T05:46:58.745Z,102288.94
2017-12-06T05:49:25.501Z,102283.70
2017-12-06T05:51:52.299Z,102289.82
2017-12-06T05:54:19.800Z,102296.36
2017-12-06T05:56:46.624Z,102299.86
2017-12-06T05:59:14.157Z,102286.31
2017-12-06T06:01:40.950Z,102290.70
2017-12-06T06:04:07.778Z,102293.33
2017-12-06T06:06:34.558Z,102290.23
2017-12-06T06:09:01.350Z,102281.45
2017-12-06T06:11:28.889Z,102281.91
2017-12-06T06:13:55.681Z,102281.48
2017-12-06T06:16:23.377Z,102273.58
2017-12-06T06:18:50.155Z,102276.23
2017-12-06T06:21:16.972Z,102264.37
2017-12-06T06:23:44.524Z,102274.03
2017-12-06T06:26:11.329Z,102268.33
2017-12-06T06:28:38.113Z,102267.01
2017-12-06T06:31:04.895Z,102268.31
2017-12-06T06:33:31.712Z,102270.05
2017-12-06T06:35:58.485Z,102273.99
2017-12-06T06:38:25.251Z,102267.42
2017-12-06T06:40:52.034Z,102268.30
2017-12-06T06:43:18.824Z,102270.02
2017-12-06T06:45:46.389Z,102270.00
2017-12-06T06:48:13.168Z,102270.02
2017-12-06T06:50:40.720Z,102271.32
2017-12-06T06:53:08.320Z,102273.48
2017-12-06T06:55:35.894Z,102266.06
2017-12-06T06:58:02.656Z,102276.52
2017-12-06T07:00:29.482Z,102278.30
2017-12-06T07:02:56.265Z,102278.70
2017-12-06T07:05:23.082Z,102281.78
2017-12-06T07:07:49.841Z,102287.03
2017-12-06T07:10:16.661Z,102286.13
2017-12-06T07:12:44.198Z,102285.72
2017-12-06T07:15:11.024Z,102282.17
2017-12-06T07:17:37.774Z,102286.14
2017-12-06T07:20:04.553Z,102283.45
2017-12-06T07:22:31.373Z,102282.66
2017-12-06T07:24:58.952Z,102281.76
2017-12-06T07:27:25.774Z,102286.09
2017-12-06T07:29:52.585Z,102287.81
2017-12-06T07:32:20.166Z,102284.75
2017-12-06T07:34:47.033Z,102279.91
2017-12-06T07:37:13.877Z,102291.30
2017-12-06T07:39:41.438Z,102283.44
2017-12-06T07:42:08.297Z,102291.33
2017-12-06T07:44:35.122Z,102290.39
2017-12-06T07:47:01.914Z,102285.19
2017-12-06T07:49:28.711Z,102288.25
2017-12-06T07:51:55.469Z,102285.14
2017-12-06T07:54:23.037Z,102286.51
2017-12-06T07:56:50.566Z,102291.71
2017-12-06T07:59:17.344Z,102293.48
2017-12-06T08:01:44.165Z,102286.48
2017-12-06T08:04:10.962Z,102282.09
2017-12-06T08:06:37.762Z,102278.52
2017-12-06T08:09:05.295Z,102279.41
2017-12-06T08:11:32.125Z,102284.66
2017-12-06T08:13:58.919Z,102289.45
2017-12-06T08:16:25.704Z,102285.45
2017-12-06T08:18:52.481Z,102289.86
2017-12-06T08:21:20.052Z,102287.70
2017-12-06T08:23:46.914Z,102288.91
2017-12-06T08:26:13.755Z,102291.17
2017-12-06T08:28:40.552Z,102296.84
2017-12-06T08:31:07.363Z,102288.02
2017-12-06T08:33:34.170Z,102287.13
2017-12-06T08:36:01.036Z,102285.84
2017-12-06T08:38:27.888Z,102288.09
2017-12-06T08:40:54.734Z,102301.20
2017-12-06T08:43:22.262Z,102297.27
2017-12-06T08:45:49.073Z,102296.34
2017-12-06T08:48:16.662Z,102298.09
2017-12-06T08:50:44.207Z,102306.85
2017-12-06T08:53:11.069Z,102297.23
2017-12-06T08:55:37.854Z,102305.02
2017-12-06T08:58:04.700Z,102304.20
2017-12-06T09:00:31.555Z,102308.53
2017-12-06T09:02:58.376Z,102312.11
2017-12-06T09:05:25.180Z,102310.23
2017-12-06T09:07:51.969Z,102312.06
2017-12-06T09:10:18.810Z,102317.78
2017-12-06T09:12:46.399Z,102314.74
2017-12-06T09:15:13.960Z,102292.38
2017-12-06T09:17:40.767Z,102304.56
2017-12-06T09:20:07.551Z,102303.30
2017-12-06T09:22:34.355Z,102307.22
2017-12-06T09:25:01.197Z,102302.39
2017-12-06T09:27:28.792Z,102313.34
2017-12-06T09:29:56.353Z,102311.58
2017-12-06T09:32:23.168Z,102316.83
2017-12-06T09:34:49.999Z,102311.13
2017-12-06T09:37:16.813Z,102302.34
2017-12-06T09:39:43.638Z,102307.11
2017-12-06T09:42:10.430Z,102309.33
2017-12-06T09:44:37.282Z,102306.29
2017-12-06T09:47:04.111Z,102300.54
2017-12-06T09:49:30.957Z,102302.30
2017-12-06T09:51:58.463Z,102297.89
2017-12-06T09:54:25.238Z,102297.91
2017-12-06T09:56:52.017Z,102301.01
2017-12-06T09:59:18.848Z,102296.08
2017-12-06T10:01:45.637Z,102304.38
2017-12-06T10:04:12.424Z,102291.28
2017-12-06T10:06:39.222Z,102293.02
2017-12-06T10:09:06.008Z,102295.23
2017-12-06T10:11:32.779Z,102292.58
2017-12-06T10:13:59.635Z,102295.16
2017-12-06T10:16:26.380Z,102291.20
2017-12-06T10:18:53.234Z,102294.69
2017-12-06T10:21:20.055Z,102288.55
2017-12-06T10:23:47.616Z,102287.66
2017-12-06T10:26:14.429Z,102284.14
2017-12-06T10:28:41.228Z,102284.14
2017-12-06T10:31:08.026Z,102279.29
2017-12-06T10:33:34.852Z,102278.86
2017-12-06T10:36:01.680Z,102276.17
2017-12-06T10:38:28.483Z,102268.30
2017-12-06T10:40:55.229Z,102270.41
2017-12-06T10:43:22.034Z,102267.81
2017-12-06T10:45:48.889Z,102260.80
2017-12-06T10:48:15.711Z,102262.34
2017-12-06T10:50:42.517Z,102254.61
2017-12-06T10:53:09.318Z,102251.07
2017-12-06T10:55:36.096Z,102252.77
2017-12-06T10:58:02.870Z,102250.19
2017-12-06T11:00:30.450Z,102241.80
2017-12-06T11:02:58.002Z,102241.34
2017-12-06T11:05:24.865Z,102240.89
2017-12-06T11:07:51.659Z,102238.17
2017-12-06T11:10:19.175Z,102237.36
2017-12-06T11:12:45.937Z,102241.22
2017-12-06T11:15:12.740Z,102239.55
2017-12-06T11:17:40.314Z,102228.53
2017-12-06T11:20:07.096Z,102236.86
2017-12-06T11:22:33.867Z,102229.44
2017-12-06T11:25:00.631Z,102225.40
2017-12-06T11:27:27.418Z,102223.27
2017-12-06T11:29:54.185Z,102217.85
2017-12-06T11:32:20.963Z,102212.65
2017-12-06T11:34:47.800Z,102213.50
2017-12-06T11:37:14.612Z,102214.72
2017-12-06T11:39:41.546Z,102212.14
2017-12-06T11:42:09.082Z,102221.64
2017-12-06T11:44:35.864Z,102217.72
2017-12-06T11:47:02.649Z,102210.70
2017-12-06T11:49:29.402Z,102210.70
2017-12-06T11:51:56.213Z,102216.78
2017-12-06T11:54:22.998Z,102212.36
2017-12-06T11:56:49.803Z,102213.74
2017-12-06T11:59:17.366Z,102213.20
2017-12-06T12:01:44.199Z,102209.73
2017-12-06T12:04:11.808Z,102211.89
2017-12-06T12:06:38.583Z,102203.89
2017-12-06T12:09:06.195Z,102203.48
2017-12-06T12:11:32.938Z,102200.31
2017-12-06T12:13:59.744Z,102188.91
2017-12-06T12:16:26.620Z,102195.96
2017-12-06T12:18:53.409Z,102188.00
2017-12-06T12:21:20.950Z,102189.34
2017-12-06T12:23:47.724Z,102184.05
2017-12-06T12:26:14.498Z,102180.53
2017-12-06T12:28:42.006Z,102180.43
2017-12-06T12:31:08.758Z,102178.71
2017-12-06T12:33:35.517Z,102175.09
2017-12-06T12:36:02.284Z,102176.30
2017-12-06T12:38:29.167Z,102169.86
2017-12-06T12:40:56.020Z,102164.05
2017-12-06T12:43:22.885Z,102170.16
2017-12-06T12:45:51.480Z,102165.41
2017-12-06T12:48:18.305Z,102162.26
2017-12-06T12:50:45.889Z,102166.20
2017-12-06T12:53:12.804Z,102164.42
2017-12-06T12:55:39.679Z,102168.41
2017-12-06T12:58:06.532Z,102162.19
2017-12-06T13:00:33.408Z,102166.61
2017-12-06T13:03:01.051Z,102161.78
2017-12-06T13:05:27.941Z,102159.63
2017-12-06T13:07:54.802Z,102165.41
2017-12-06T13:10:22.405Z,102167.89
2017-12-06T13:12:50.006Z,102162.63
2017-12-06T13:15:16.858Z,102152.97
2017-12-06T13:17:43.708Z,102141.13
2017-12-06T13:20:11.320Z,102141.96
2017-12-06T13:22:38.245Z,102143.64
2017-12-06T13:25:08.238Z,102138.96
2017-12-06T13:27:35.094Z,102134.06
2017-12-06T13:30:02.001Z,102138.92
2017-12-06T13:32:29.595Z,102130.95
2017-12-06T13:34:56.441Z,102129.52
2017-12-06T13:37:24.036Z,102133.03
2017-12-06T13:39:50.878Z,102129.70
2017-12-06T13:42:18.486Z,102121.18
2017-12-06T13:44:45.484Z,102121.70
2017-12-06T13:47:12.391Z,102123.77
2017-12-06T13:49:40.013Z,102121.98
2017-12-06T13:52:07.000Z,102121.18
2017-12-06T13:54:33.991Z,102119.02
2017-12-06T13:57:01.684Z,102108.09
2017-12-06T13:59:29.251Z,102112.44
2017-12-06T14:01:56.866Z,102113.96
2017-12-06T14:04:23.747Z,102107.13
2017-12-06T14:06:51.419Z,102110.20
2017-12-06T14:09:18.365Z,102109.84
2017-12-06T14:11:45.943Z,102116.39
2017-12-06T14:14:12.862Z,102112.77
2017-12-06T14:16:39.713Z,102109.44
2017-12-06T14:19:06.620Z,102106.77
2017-12-06T14:21:33.633Z,102113.95
2017-12-06T14:24:00.589Z,102110.72
2017-12-06T14:26:27.555Z,102114.70
2017-12-06T14:28:54.448Z,102113.40
2017-12-06T14:31:21.282Z,102112.04
2017-12-06T14:33:48.160Z,102105.09
2017-12-06T14:36:15.022Z,102108.13
2017-12-06T14:38:41.863Z,102103.70
2017-12-06T14:41:08.723Z,102104.94
2017-12-06T14:43:35.529Z,102103.70
2017-12-06T14:46:03.175Z,102099.39
2017-12-06T14:48:30.072Z,102097.12
2017-12-06T14:50:57.646Z,102092.80
2017-12-06T14:53:25.289Z,102087.58
2017-12-06T14:55:52.174Z,102097.12
2017-12-06T14:58:19.863Z,102096.35
2017-12-06T15:00:47.453Z,102085.83
2017-12-06T15:03:24.808Z,102092.48
2017-12-06T15:05:51.795Z,102095.88
2017-12-06T15:08:18.703Z,102092.84
2017-12-06T15:10:45.568Z,102093.28
2017-12-06T15:13:12.463Z,102088.57
2017-12-06T16:10:21.025Z,102064.67
2017-12-06T16:12:47.923Z,102064.23
2017-12-06T16:15:14.803Z,102064.27
2017-12-06T16:17:42.452Z,102057.61
2017-12-06T16:20:09.383Z,102060.36
2017-12-06T16:22:36.398Z,102061.20
2017-12-06T16:25:03.392Z,102055.06
2017-12-06T16:27:30.986Z,102058.61
2017-12-06T16:29:57.917Z,102055.55
2017-12-06T16:32:25.526Z,102061.69
2017-12-06T16:35:10.570Z,102053.34
2017-12-06T16:37:38.868Z,102059.97
2017-12-06T16:40:06.489Z,102062.60
2017-12-06T16:42:33.320Z,102062.16
2017-12-06T16:45:00.535Z,102056.45
2017-12-06T16:47:27.485Z,102059.09
2017-12-06T16:49:54.481Z,102050.83
2017-12-06T16:52:21.421Z,102050.83
2017-12-06T16:54:48.282Z,102056.09
2017-12-06T16:57:15.181Z,102055.22
2017-12-06T16:59:42.851Z,102053.06
2017-12-06T17:02:09.754Z,102050.43
2017-12-06T17:04:36.626Z,102049.16
2017-12-06T17:07:05.368Z,102045.64
2017-12-06T17:09:32.228Z,102044.77
2017-12-06T17:11:59.083Z,102041.70
2017-12-06T17:14:26.395Z,102040.86
2017-12-06T17:16:53.284Z,102035.12
2017-12-06T17:19:20.183Z,102034.68
2017-12-06T17:21:47.067Z,102037.79
2017-12-06T17:24:13.924Z,102036.87
2017-12-06T17:26:40.790Z,102032.95
2017-12-06T17:29:25.922Z,102029.93
2017-12-06T17:31:53.517Z,102023.35
2017-12-06T17:34:20.364Z,102021.63
2017-12-06T17:36:47.234Z,102020.80
2017-12-06T17:39:14.078Z,102016.37
2017-12-06T17:41:40.977Z,102021.20
2017-12-06T17:44:07.822Z,102012.03
2017-12-06T17:46:34.683Z,102015.93
2017-12-06T17:49:01.577Z,102010.27
2017-12-06T17:51:28.467Z,102012.03
2017-12-06T17:53:55.833Z,102010.23
2017-12-06T17:56:23.437Z,102005.48
2017-12-06T17:58:50.332Z,102003.30
2017-12-06T18:01:17.212Z,102000.66
2017-12-06T18:03:44.127Z,101999.31
2017-12-06T18:06:11.194Z,102001.98
2017-12-06T18:08:38.100Z,101999.37
2017-12-06T18:11:05.035Z,101997.23
2017-12-06T18:13:31.928Z,101987.10
2017-12-06T18:15:59.700Z,101985.39
2017-12-06T18:18:27.636Z,101986.23
2017-12-06T18:20:54.590Z,101976.58
2017-12-06T18:23:21.569Z,101980.56
2017-12-06T18:25:49.750Z,101972.19
2017-12-06T18:28:16.708Z,101973.07
2017-12-06T18:30:45.214Z,101973.91
2017-12-06T18:33:12.889Z,101970.44
2017-12-06T18:35:40.027Z,101974.38
2017-12-06T18:38:06.970Z,101970.91
2017-12-06T18:40:33.904Z,101969.64
2017-12-06T18:43:00.707Z,101962.59
2017-12-06T18:45:28.020Z,101957.76
2017-12-06T18:47:56.149Z,101962.63
2017-12-06T18:50:24.937Z,101956.00
2017-12-06T18:52:54.465Z,101956.92
2017-12-06T18:55:23.226Z,101957.80
2017-12-06T18:57:51.310Z,101947.23
2017-12-06T19:00:21.849Z,101948.55
2017-12-06T19:02:49.450Z,101951.63
2017-12-06T19:05:17.443Z,101951.22
2017-12-06T19:07:44.314Z,101944.25
2017-12-06T19:10:11.381Z,101944.20
2017-12-06T19:12:38.329Z,101941.62
2017-12-06T19:15:05.973Z,101938.95
2017-12-06T19:17:32.817Z,101945.56
2017-12-06T19:19:59.722Z,101942.97
2017-12-06T19:22:27.757Z,101941.17
2017-12-06T19:24:55.466Z,101936.39
2017-12-06T19:27:22.655Z,101924.55
2017-12-06T19:29:50.739Z,101924.03
2017-12-06T19:32:19.359Z,101927.54
2017-12-06T19:34:47.386Z,101922.36
2017-12-06T19:37:14.236Z,101925.43
2017-12-06T19:39:43.045Z,101927.59
2017-12-06T19:42:11.907Z,101916.26
2017-12-06T19:44:40.118Z,101912.23
2017-12-06T19:47:09.535Z,101917.94
2017-12-06T19:49:37.822Z,101914.07
2017-12-06T19:52:06.750Z,101909.64
2017-12-06T19:54:35.122Z,101903.46
2017-12-06T19:57:03.939Z,101905.22
2017-12-06T19:59:32.792Z,101896.92
2017-12-06T20:02:01.522Z,101895.66
2017-12-06T20:04:30.857Z,101898.25
2017-12-06T20:06:59.620Z,101890.79
2017-12-06T20:09:28.582Z,101886.45
2017-12-06T20:11:58.154Z,101880.83
2017-12-06T20:14:26.994Z,101881.98
2017-12-06T20:16:56.094Z,101877.20
2017-12-06T20:19:25.056Z,101871.14
2017-12-06T20:22:01.001Z,101870.70
2017-12-06T20:24:29.927Z,101869.79
2017-12-06T20:27:00.123Z,101866.23
2017-12-06T20:29:29.015Z,101866.28
2017-12-06T20:31:57.891Z,101857.63
2017-12-06T20:34:27.736Z,101861.10
2017-12-06T20:36:56.703Z,101865.36
2017-12-06T20:39:26.145Z,101867.68
2017-12-06T20:41:55.492Z,101859.78
2017-12-06T20:44:24.373Z,101864.21
2017-12-06T20:46:53.544Z,101862.84
2017-12-06T20:49:22.502Z,101860.30
2017-12-06T20:51:51.408Z,101861.10
2017-12-06T20:54:22.190Z,101849.75
2017-12-06T20:56:51.290Z,101854.13
2017-12-06T20:59:20.180Z,101847.07
2017-12-06T21:01:49.038Z,101851.02
2017-12-06T21:04:18.158Z,101850.62
2017-12-06T21:06:47.177Z,101844.48
2017-12-06T21:09:16.028Z,101848.50
2017-12-06T21:11:44.649Z,101845.40
2017-12-06T21:14:13.561Z,101839.27
2017-12-06T21:16:41.510Z,101837.11
2017-12-06T21:19:10.004Z,101833.64
2017-12-06T21:21:38.381Z,101835.31
2017-12-06T21:24:06.560Z,101829.62
2017-12-06T21:26:34.787Z,101822.69
2017-12-06T21:29:01.974Z,101820.05
2017-12-06T21:31:28.811Z,101824.41
2017-12-06T21:33:55.954Z,101814.76
2017-12-06T21:36:22.873Z,101826.20
2017-12-06T21:38:49.879Z,101820.53
2017-12-06T21:41:17.486Z,101815.31
2017-12-06T21:43:45.645Z,101807.38
2017-12-06T21:46:13.270Z,101811.34
2017-12-06T21:48:41.536Z,101811.38
2017-12-06T21:51:08.495Z,101811.34
2017-12-06T21:53:35.530Z,101801.73
2017-12-06T21:56:03.603Z,101804.36
2017-12-06T21:58:30.623Z,101810.94
2017-12-06T22:00:57.573Z,101804.40
2017-12-06T22:03:24.477Z,101801.78
2017-12-06T22:05:51.421Z,101793.09
2017-12-06T22:08:19.075Z,101792.13
2017-12-06T22:10:46.033Z,101790.46
2017-12-06T22:13:12.960Z,101786.91
2017-12-06T22:15:40.035Z,101773.84
2017-12-06T22:18:06.892Z,101784.33
2017-12-06T22:20:33.721Z,101768.50
2017-12-06T22:23:01.301Z,101767.19
2017-12-06T22:25:28.114Z,101768.11
2017-12-06T22:27:54.945Z,101762.02
2017-12-06T22:30:21.761Z,101762.49
2017-12-06T22:32:48.562Z,101758.55
2017-12-06T22:35:15.392Z,101750.66
2017-12-06T22:37:42.930Z,101748.43
2017-12-06T22:40:09.751Z,101745.88
2017-12-06T22:42:36.550Z,101743.70
2017-12-06T22:45:15.290Z,101744.61
2017-12-06T22:47:42.217Z,101753.86
2017-12-06T22:50:09.112Z,101745.48
2017-12-06T22:52:36.011Z,101737.60
2017-12-06T22:55:02.965Z,101735.89
2017-12-06T22:57:29.855Z,101739.44
2017-12-06T22:59:56.772Z,101729.75
2017-12-06T23:02:23.662Z,101733.30
2017-12-06T23:04:50.552Z,101723.22
2017-12-06T23:07:17.425Z,101724.06
2017-12-06T23:09:44.355Z,101708.81
2017-12-06T23:12:11.249Z,101711.39
2017-12-06T23:14:38.120Z,101702.20
2017-12-06T23:17:05.054Z,101702.28
2017-12-06T23:19:31.851Z,101700.97
2017-12-06T23:21:58.713Z,101699.61
2017-12-06T23:24:26.253Z,101703.63
2017-12-06T23:26:53.076Z,101691.45
2017-12-06T23:29:19.904Z,101698.82
2017-12-06T23:31:46.798Z,101694.92
2017-12-06T23:34:13.546Z,101685.31
2017-12-06T23:36:40.400Z,101703.34
2017-12-06T23:39:07.270Z,101686.25
2017-12-06T23:41:34.093Z,101690.23
2017-12-06T23:44:01.733Z,101685.06
2017-12-06T23:46:28.514Z,101682.78
2017-12-06T23:48:56.032Z,101671.00
2017-12-06T23:51:22.845Z,101675.38
2017-12-06T23:53:50.350Z,101670.69
2017-12-06T23:56:17.180Z,101665.34
2017-12-06T23:58:44.679Z,101666.80
